Pagina principale
METAR-TAF:

METAR-TAF

Aeroporti :

Aeroporto di Győr-Pér

Győr, Ungheria

latitudine: 47-37-28N, longitudine: 017-48-49E, altezza: 129 m

Osservazione

Il bollettino è stato emesso 46 minuti fa, alle 20:45 UTC
Vento 4 kt da ovest
Temperature 2°C
Umidità 80%
Pressione 1018 hPa
Visibilità: 8000 m

METAR: LHPR 182045Z AUTO 27004KT 8000 NSC 02/M01 Q1018 RMK BLU

Ora: 22:31 (21:31 UTC)

Previsione

Il bollettino è stato emesso 4 ore e 16 minuti fa, alle 17:15 UTC
Previsione valida dal 18 alle 18 UTC al 19 alle 03 UTC
Vento 3 kt da direzioni variabili
Visibilità 10 km o più
Nuvoloso ad un'altezza di 4500 ft
Cielo coperto ad un'altezza di 8000 ft
Temporaneamente
dal 18 alle 20 UTC al 19 alle 03 UTC
Visibilità: 5000 m
Nuvoloso ad un'altezza di 3000 ft
Cielo coperto ad un'altezza di 6000 ft
neve debole

TAF: LHPR 181715Z 1818/1903 VRB03KT 9999 BKN045 OVC080 TEMPO 1820/1903 5000 -SN BKN030 OVC060

Osservazioni e previsioni meteorologiche di più di 4000 aeroporti (messaggi METAR e TAF).

Le stazioni disponibili sono rappresentate dai dischi gialli e rossi sulla carta.

Puntare il mouse per vedere il nome della stazione.

Clicca sopra per visualizzare le osservazioni e previsioni meteorologiche.

Per cambiare la mappa : fare clic sui pulsanti verdi con una croce nera per ingrandire, il pulsante verde con un trattino per diminuire, o sulla freccia verde per le mappe adiacenti.


METAR-TAF: